createdAt,value
2018-12-21T00:01:43.395Z,0.40
2018-12-21T00:04:10.859Z,0.50
2018-12-21T00:06:38.506Z,0.50
2018-12-21T00:09:06.520Z,0.50
2018-12-21T00:11:33.982Z,0.50
2018-12-21T00:14:01.528Z,0.60
2018-12-21T00:16:29.027Z,0.50
2018-12-21T00:18:56.606Z,0.40
2018-12-21T00:21:24.090Z,0.40
2018-12-21T00:23:51.625Z,0.40
2018-12-21T00:26:19.137Z,0.40
2018-12-21T00:28:46.722Z,0.40
2018-12-21T00:31:20.057Z,0.40
2018-12-21T00:33:53.489Z,0.50
2018-12-21T00:36:26.800Z,0.40
2018-12-21T00:39:00.002Z,0.50
2018-12-21T00:41:27.186Z,0.40
2018-12-21T00:44:00.154Z,0.50
2018-12-21T00:46:34.314Z,0.50
2018-12-21T00:49:01.843Z,0.40
2018-12-21T00:51:30.317Z,0.40
2018-12-21T00:53:58.167Z,0.40
2018-12-21T00:56:25.703Z,0.40
2018-12-21T00:58:53.323Z,0.40
2018-12-21T01:01:21.375Z,0.40
2018-12-21T01:03:48.928Z,0.40
2018-12-21T01:06:16.630Z,0.40
2018-12-21T01:08:44.347Z,0.40
2018-12-21T01:11:11.900Z,0.40
2018-12-21T01:13:39.580Z,0.40
2018-12-21T01:16:07.162Z,0.40
2018-12-21T01:18:35.195Z,0.40
2018-12-21T01:23:39.928Z,0.40
2018-12-21T01:26:07.526Z,0.40
2018-12-21T01:28:35.087Z,0.40
2018-12-21T01:31:02.669Z,0.40
2018-12-21T01:33:30.280Z,0.40
2018-12-21T01:35:58.231Z,0.40
2018-12-21T01:38:25.771Z,0.40
2018-12-21T01:40:53.438Z,0.50
2018-12-21T01:43:21.106Z,0.40
2018-12-21T01:45:48.687Z,0.40
2018-12-21T01:48:16.317Z,0.50
2018-12-21T01:50:43.890Z,0.40
2018-12-21T01:53:11.411Z,0.50
2018-12-21T01:55:39.735Z,0.50
2018-12-21T01:58:07.770Z,0.50
2018-12-21T02:00:35.383Z,0.40
2018-12-21T02:03:03.050Z,0.40
2018-12-21T02:05:30.844Z,0.50
2018-12-21T02:07:58.457Z,0.40
2018-12-21T02:10:26.403Z,0.40
2018-12-21T02:12:54.909Z,0.40
2018-12-21T02:15:24.799Z,0.40
2018-12-21T02:17:52.710Z,0.40
2018-12-21T02:20:20.296Z,0.40
2018-12-21T02:22:48.399Z,0.40
2018-12-21T02:30:32.936Z,0.30
2018-12-21T02:33:00.709Z,0.40
2018-12-21T02:35:36.610Z,0.30
2018-12-21T02:38:05.584Z,0.40
2018-12-21T02:40:36.032Z,0.40
2018-12-21T02:43:09.075Z,0.40
2018-12-21T02:45:38.812Z,0.40
2018-12-21T02:48:10.803Z,0.40
2018-12-21T02:56:27.579Z,0.40
2018-12-21T02:58:55.485Z,0.40
2018-12-21T03:06:48.971Z,0.40
2018-12-21T03:09:22.651Z,0.40
2018-12-21T03:11:53.897Z,0.40
2018-12-21T03:14:49.782Z,0.40
2018-12-21T03:17:31.852Z,0.40
2018-12-21T03:20:06.919Z,0.40
2018-12-21T03:22:40.898Z,0.30
2018-12-21T03:25:13.296Z,0.40
2018-12-21T03:27:43.523Z,0.40
2018-12-21T03:30:17.001Z,0.40
2018-12-21T03:35:55.899Z,0.40
2018-12-21T03:38:25.456Z,0.40
2018-12-21T03:40:53.254Z,0.40
2018-12-21T03:43:20.865Z,0.40
2018-12-21T03:45:48.459Z,0.40
2018-12-21T03:48:16.123Z,0.40
2018-12-21T03:50:44.107Z,0.50
2018-12-21T03:53:11.701Z,0.40
2018-12-21T03:55:39.258Z,0.40
2018-12-21T03:58:07.686Z,0.40
2018-12-21T04:00:35.440Z,0.40
2018-12-21T04:03:03.037Z,0.40
2018-12-21T04:05:30.715Z,0.40
2018-12-21T04:07:58.587Z,0.40
2018-12-21T04:10:26.205Z,0.40
2018-12-21T04:12:53.710Z,0.40
2018-12-21T04:15:21.360Z,0.40
2018-12-21T04:17:48.938Z,0.40
2018-12-21T04:20:16.696Z,0.40
2018-12-21T04:22:45.462Z,0.40
2018-12-21T04:25:13.530Z,0.40
2018-12-21T04:27:41.290Z,0.30
2018-12-21T04:30:09.394Z,0.40
2018-12-21T04:32:36.929Z,0.40
2018-12-21T04:35:05.023Z,0.30
2018-12-21T04:37:39.587Z,0.40
2018-12-21T04:42:45.162Z,0.30
2018-12-21T04:45:13.263Z,0.30
2018-12-21T04:47:42.181Z,0.30
2018-12-21T04:50:10.820Z,0.20
2018-12-21T04:52:43.242Z,0.30
2018-12-21T04:55:08.120Z,0.20
2018-12-21T04:57:35.755Z,0.20
2018-12-21T05:00:04.366Z,0.30
2018-12-21T05:02:32.529Z,0.30
2018-12-21T05:05:02.541Z,0.30
2018-12-21T05:10:13.949Z,0.30
2018-12-21T05:12:42.463Z,0.30
2018-12-21T05:15:11.448Z,0.30
2018-12-21T05:17:44.260Z,0.30
2018-12-21T05:20:17.249Z,0.30
2018-12-21T05:26:40.993Z,0.30
2018-12-21T05:29:18.996Z,0.20
2018-12-21T05:37:09.242Z,0.20
2018-12-21T05:42:24.504Z,0.30
2018-12-21T05:44:53.897Z,0.20
2018-12-21T05:47:22.447Z,0.30
2018-12-21T05:49:52.571Z,0.30
2018-12-21T05:52:21.355Z,0.30
2018-12-21T05:58:05.191Z,0.30
2018-12-21T06:00:35.556Z,0.30
2018-12-21T06:03:04.557Z,0.30
2018-12-21T06:05:32.965Z,0.30
2018-12-21T06:08:02.370Z,0.30
2018-12-21T06:10:30.575Z,0.30
2018-12-21T06:12:58.595Z,0.30
2018-12-21T06:15:31.930Z,0.30
2018-12-21T06:18:00.315Z,0.30
2018-12-21T06:20:29.293Z,0.30
2018-12-21T06:25:37.990Z,0.40
2018-12-21T06:28:05.739Z,0.30
2018-12-21T06:30:34.949Z,0.40
2018-12-21T07:01:51.101Z,0.30
2018-12-21T07:07:25.958Z,0.20
2018-12-21T07:15:59.337Z,0.20
2018-12-21T07:55:39.501Z,0.00
2018-12-21T08:00:51.430Z,0.10
2018-12-21T08:05:59.741Z,0.10
2018-12-21T08:08:32.294Z,0.10
2018-12-21T08:11:01.443Z,0.10
2018-12-21T08:13:28.954Z,0.10
2018-12-21T08:15:56.683Z,0.10
2018-12-21T08:18:24.489Z,0.20
2018-12-21T08:20:54.728Z,0.10
2018-12-21T08:23:26.842Z,0.10
2018-12-21T08:25:55.962Z,0.20
2018-12-21T08:28:23.746Z,0.20
2018-12-21T08:30:51.827Z,0.20
2018-12-21T08:33:24.173Z,0.10
2018-12-21T08:35:51.796Z,0.20
2018-12-21T08:38:20.646Z,0.20
2018-12-21T08:40:48.169Z,0.20
2018-12-21T08:43:16.382Z,0.20
2018-12-21T08:48:23.263Z,0.10
2018-12-21T08:53:29.920Z,0.10
2018-12-21T08:55:59.306Z,0.10
2018-12-21T08:58:37.762Z,0.10
2018-12-21T09:01:05.576Z,0.10
2018-12-21T09:03:34.395Z,0.10
2018-12-21T09:06:03.482Z,0.10
2018-12-21T09:08:31.747Z,0.20
2018-12-21T09:10:59.420Z,0.10
2018-12-21T09:13:27.727Z,0.20
2018-12-21T09:15:55.880Z,0.20
2018-12-21T09:18:23.763Z,0.10
2018-12-21T09:20:54.001Z,0.20
2018-12-21T09:23:25.361Z,0.20
2018-12-21T09:25:53.142Z,0.20
2018-12-21T09:28:20.964Z,0.20
2018-12-21T09:30:48.517Z,0.20
2018-12-21T09:33:16.151Z,0.20
2018-12-21T09:35:44.084Z,0.20
2018-12-21T09:40:49.404Z,0.20
2018-12-21T09:43:17.125Z,0.20
2018-12-21T09:45:44.749Z,0.20
2018-12-21T09:48:12.438Z,0.20
2018-12-21T09:50:40.557Z,0.20
2018-12-21T09:53:08.282Z,0.20
2018-12-21T09:55:35.863Z,0.30
2018-12-21T09:58:03.715Z,0.30
2018-12-21T10:00:31.269Z,0.30
2018-12-21T10:02:59.109Z,0.30
2018-12-21T10:05:27.732Z,0.30
2018-12-21T10:07:57.163Z,0.30
2018-12-21T10:10:31.841Z,0.30
2018-12-21T10:13:01.533Z,0.30
2018-12-21T10:15:29.515Z,0.40
2018-12-21T10:17:57.148Z,0.40
2018-12-21T10:20:25.090Z,0.50
2018-12-21T10:25:31.502Z,0.40
2018-12-21T10:27:59.219Z,0.40
2018-12-21T10:30:27.324Z,0.40
2018-12-21T10:32:55.447Z,0.40
2018-12-21T10:35:23.293Z,0.40
2018-12-21T10:37:51.024Z,0.40
2018-12-21T10:43:01.407Z,0.40
2018-12-21T10:48:10.365Z,0.40
2018-12-21T10:50:41.936Z,0.30
2018-12-21T10:53:13.936Z,0.40
2018-12-21T11:26:56.051Z,0.30
2018-12-21T11:29:23.798Z,0.30
2018-12-21T11:34:44.072Z,0.30
2018-12-21T11:43:19.903Z,0.30
2018-12-21T11:49:28.998Z,0.30
2018-12-21T11:52:15.589Z,0.30
2018-12-21T11:57:50.974Z,0.30
2018-12-21T12:00:18.744Z,0.30
2018-12-21T12:02:47.551Z,0.40
2018-12-21T12:05:15.445Z,0.30
2018-12-21T12:07:43.207Z,0.30
2018-12-21T13:24:44.323Z,0.20
2018-12-21T14:29:06.140Z,0.00
2018-12-21T14:38:17.382Z,-0.10
2018-12-21T14:40:48.017Z,-0.10
2018-12-21T14:43:21.131Z,-0.10
2018-12-21T14:46:02.127Z,-0.10
2018-12-21T14:51:46.221Z,-0.10
2018-12-21T14:54:18.291Z,-0.10
2018-12-21T15:00:17.661Z,-0.10
2018-12-21T15:03:00.597Z,-0.10
2018-12-21T15:05:36.091Z,-0.10
2018-12-21T19:08:14.142Z,-0.90
2018-12-21T19:57:48.329Z,-0.90
2018-12-21T20:58:45.215Z,-1.20
2018-12-21T21:15:36.869Z,-1.20
2018-12-21T22:03:12.098Z,-1.20
